sensor_id;sensor_type;location;lat;lon;timestamp;temperature;humidity
28247;DHT22;34504;53.178;22.058;2022-07-23T00:00:50;22.70;88.30
28247;DHT22;34504;53.178;22.058;2022-07-23T00:03:18;22.70;88.40
28247;DHT22;34504;53.178;22.058;2022-07-23T00:05:46;22.70;88.60
28247;DHT22;34504;53.178;22.058;2022-07-23T00:08:23;22.60;88.60
28247;DHT22;34504;53.178;22.058;2022-07-23T00:10:51;22.60;88.60
28247;DHT22;34504;53.178;22.058;2022-07-23T00:13:23;22.60;88.70
28247;DHT22;34504;53.178;22.058;2022-07-23T00:15:51;22.60;88.90
28247;DHT22;34504;53.178;22.058;2022-07-23T00:18:19;22.50;88.90
28247;DHT22;34504;53.178;22.058;2022-07-23T00:20:47;22.50;89.70
28247;DHT22;34504;53.178;22.058;2022-07-23T00:23:15;22.50;89.10
28247;DHT22;34504;53.178;22.058;2022-07-23T00:25:45;22.40;89.00
28247;DHT22;34504;53.178;22.058;2022-07-23T00:28:16;22.40;89.20
28247;DHT22;34504;53.178;22.058;2022-07-23T00:30:44;22.30;89.70
28247;DHT22;34504;53.178;22.058;2022-07-23T00:33:14;22.20;90.00
28247;DHT22;34504;53.178;22.058;2022-07-23T00:35:46;22.10;90.10
28247;DHT22;34504;53.178;22.058;2022-07-23T00:38:15;22.10;90.30
28247;DHT22;34504;53.178;22.058;2022-07-23T00:40:42;22.00;90.30
28247;DHT22;34504;53.178;22.058;2022-07-23T00:43:10;22.00;90.40
28247;DHT22;34504;53.178;22.058;2022-07-23T00:45:38;22.00;90.50
28247;DHT22;34504;53.178;22.058;2022-07-23T00:48:08;21.90;90.60
28247;DHT22;34504;53.178;22.058;2022-07-23T00:50:37;21.80;90.70
28247;DHT22;34504;53.178;22.058;2022-07-23T00:53:08;21.80;90.90
28247;DHT22;34504;53.178;22.058;2022-07-23T00:55:38;21.80;91.00
28247;DHT22;34504;53.178;22.058;2022-07-23T00:58:08;21.80;91.00
28247;DHT22;34504;53.178;22.058;2022-07-23T01:00:39;21.70;91.00
28247;DHT22;34504;53.178;22.058;2022-07-23T01:03:08;21.70;91.20
28247;DHT22;34504;53.178;22.058;2022-07-23T01:05:36;21.60;91.30
28247;DHT22;34504;53.178;22.058;2022-07-23T01:08:06;21.60;91.50
28247;DHT22;34504;53.178;22.058;2022-07-23T01:10:34;21.50;91.60
28247;DHT22;34504;53.178;22.058;2022-07-23T01:13:06;21.50;91.50
28247;DHT22;34504;53.178;22.058;2022-07-23T01:15:35;21.50;91.70
28247;DHT22;34504;53.178;22.058;2022-07-23T01:18:03;21.50;91.70
28247;DHT22;34504;53.178;22.058;2022-07-23T01:20:33;21.40;91.70
28247;DHT22;34504;53.178;22.058;2022-07-23T01:23:02;21.40;91.60
28247;DHT22;34504;53.178;22.058;2022-07-23T01:25:30;21.40;91.80
28247;DHT22;34504;53.178;22.058;2022-07-23T01:28:01;21.30;92.00
28247;DHT22;34504;53.178;22.058;2022-07-23T01:30:33;21.30;92.10
28247;DHT22;34504;53.178;22.058;2022-07-23T01:33:05;21.30;92.00
28247;DHT22;34504;53.178;22.058;2022-07-23T01:35:34;21.20;92.00
28247;DHT22;34504;53.178;22.058;2022-07-23T01:38:07;21.20;92.10
28247;DHT22;34504;53.178;22.058;2022-07-23T01:40:38;21.20;92.00
28247;DHT22;34504;53.178;22.058;2022-07-23T01:43:10;21.20;91.90
28247;DHT22;34504;53.178;22.058;2022-07-23T01:45:42;21.20;91.80
28247;DHT22;34504;53.178;22.058;2022-07-23T01:48:13;21.20;91.80
28247;DHT22;34504;53.178;22.058;2022-07-23T01:50:52;21.10;92.00
28247;DHT22;34504;53.178;22.058;2022-07-23T01:53:40;21.10;92.00
28247;DHT22;34504;53.178;22.058;2022-07-23T01:56:15;21.10;91.90
28247;DHT22;34504;53.178;22.058;2022-07-23T01:58:42;21.10;91.90
28247;DHT22;34504;53.178;22.058;2022-07-23T02:01:11;21.00;91.90
28247;DHT22;34504;53.178;22.058;2022-07-23T02:03:39;21.00;91.90
28247;DHT22;34504;53.178;22.058;2022-07-23T02:06:07;21.00;92.10
28247;DHT22;34504;53.178;22.058;2022-07-23T02:08:35;21.00;92.10
28247;DHT22;34504;53.178;22.058;2022-07-23T02:11:05;20.90;92.10
28247;DHT22;34504;53.178;22.058;2022-07-23T02:13:38;20.90;92.20
28247;DHT22;34504;53.178;22.058;2022-07-23T02:16:09;20.90;92.20
28247;DHT22;34504;53.178;22.058;2022-07-23T02:18:37;20.90;92.30
28247;DHT22;34504;53.178;22.058;2022-07-23T02:21:05;20.80;92.30
28247;DHT22;34504;53.178;22.058;2022-07-23T02:23:35;20.80;92.50
28247;DHT22;34504;53.178;22.058;2022-07-23T02:26:03;20.80;92.50
28247;DHT22;34504;53.178;22.058;2022-07-23T02:28:31;20.80;92.60
28247;DHT22;34504;53.178;22.058;2022-07-23T02:31:00;20.70;92.60
28247;DHT22;34504;53.178;22.058;2022-07-23T02:33:28;20.70;92.60
28247;DHT22;34504;53.178;22.058;2022-07-23T02:35:58;20.70;92.50
28247;DHT22;34504;53.178;22.058;2022-07-23T02:38:26;20.60;92.40
28247;DHT22;34504;53.178;22.058;2022-07-23T02:40:57;20.60;92.30
28247;DHT22;34504;53.178;22.058;2022-07-23T02:43:27;20.50;92.40
28247;DHT22;34504;53.178;22.058;2022-07-23T02:45:55;20.50;92.60
28247;DHT22;34504;53.178;22.058;2022-07-23T02:48:24;20.40;92.40
28247;DHT22;34504;53.178;22.058;2022-07-23T02:50:52;20.30;92.50
28247;DHT22;34504;53.178;22.058;2022-07-23T02:53:29;20.30;92.60
28247;DHT22;34504;53.178;22.058;2022-07-23T02:55:57;20.30;92.60
28247;DHT22;34504;53.178;22.058;2022-07-23T02:58:26;20.30;92.60
28247;DHT22;34504;53.178;22.058;2022-07-23T03:00:56;20.30;92.40
28247;DHT22;34504;53.178;22.058;2022-07-23T03:03:27;20.30;92.50
28247;DHT22;34504;53.178;22.058;2022-07-23T03:05:57;20.30;92.50
28247;DHT22;34504;53.178;22.058;2022-07-23T03:08:27;20.30;92.70
28247;DHT22;34504;53.178;22.058;2022-07-23T03:10:56;20.30;92.70
28247;DHT22;34504;53.178;22.058;2022-07-23T03:13:24;20.30;92.70
28247;DHT22;34504;53.178;22.058;2022-07-23T03:16:12;20.30;92.80
28247;DHT22;34504;53.178;22.058;2022-07-23T03:18:49;20.40;92.80
28247;DHT22;34504;53.178;22.058;2022-07-23T03:21:19;20.40;92.70
28247;DHT22;34504;53.178;22.058;2022-07-23T03:23:48;20.50;92.60
28247;DHT22;34504;53.178;22.058;2022-07-23T03:26:16;20.50;92.40
28247;DHT22;34504;53.178;22.058;2022-07-23T03:28:48;20.50;92.40
28247;DHT22;34504;53.178;22.058;2022-07-23T03:31:19;20.50;92.50
28247;DHT22;34504;53.178;22.058;2022-07-23T03:33:48;20.60;92.70
28247;DHT22;34504;53.178;22.058;2022-07-23T03:36:18;20.70;92.50
28247;DHT22;34504;53.178;22.058;2022-07-23T03:38:51;20.70;92.40
28247;DHT22;34504;53.178;22.058;2022-07-23T03:41:19;20.80;92.30
28247;DHT22;34504;53.178;22.058;2022-07-23T03:43:54;20.90;92.10
28247;DHT22;34504;53.178;22.058;2022-07-23T03:46:22;21.00;92.10
28247;DHT22;34504;53.178;22.058;2022-07-23T03:48:50;21.00;92.00
28247;DHT22;34504;53.178;22.058;2022-07-23T03:51:25;21.00;92.20
28247;DHT22;34504;53.178;22.058;2022-07-23T03:53:53;21.10;92.20
28247;DHT22;34504;53.178;22.058;2022-07-23T03:56:22;21.20;92.10
28247;DHT22;34504;53.178;22.058;2022-07-23T03:59:07;21.20;91.90
28247;DHT22;34504;53.178;22.058;2022-07-23T04:01:39;21.10;92.10
28247;DHT22;34504;53.178;22.058;2022-07-23T04:04:11;21.10;92.20
28247;DHT22;34504;53.178;22.058;2022-07-23T04:06:43;21.20;92.10
28247;DHT22;34504;53.178;22.058;2022-07-23T04:09:11;21.20;92.20
28247;DHT22;34504;53.178;22.058;2022-07-23T04:11:39;21.20;92.30
28247;DHT22;34504;53.178;22.058;2022-07-23T04:14:11;21.30;92.00
28247;DHT22;34504;53.178;22.058;2022-07-23T04:16:47;21.30;92.00
28247;DHT22;34504;53.178;22.058;2022-07-23T04:19:16;21.50;92.00
28247;DHT22;34504;53.178;22.058;2022-07-23T04:22:06;21.50;91.70
28247;DHT22;34504;53.178;22.058;2022-07-23T04:24:35;21.60;91.50
28247;DHT22;34504;53.178;22.058;2022-07-23T04:27:04;21.60;91.40
28247;DHT22;34504;53.178;22.058;2022-07-23T04:29:41;21.80;91.30
28247;DHT22;34504;53.178;22.058;2022-07-23T04:32:17;21.80;91.20
28247;DHT22;34504;53.178;22.058;2022-07-23T04:38:53;22.00;91.10
28247;DHT22;34504;53.178;22.058;2022-07-23T04:41:42;22.10;91.00
28247;DHT22;34504;53.178;22.058;2022-07-23T04:44:15;22.10;90.90
28247;DHT22;34504;53.178;22.058;2022-07-23T04:46:44;22.10;91.00
28247;DHT22;34504;53.178;22.058;2022-07-23T04:49:14;22.10;91.10
28247;DHT22;34504;53.178;22.058;2022-07-23T04:51:46;22.20;91.20
28247;DHT22;34504;53.178;22.058;2022-07-23T04:54:17;22.20;91.10
28247;DHT22;34504;53.178;22.058;2022-07-23T04:56:47;22.30;91.20
28247;DHT22;34504;53.178;22.058;2022-07-23T04:59:17;22.40;91.10
28247;DHT22;34504;53.178;22.058;2022-07-23T05:01:48;22.40;90.80
28247;DHT22;34504;53.178;22.058;2022-07-23T05:04:18;22.40;91.10
28247;DHT22;34504;53.178;22.058;2022-07-23T05:06:47;22.40;91.10
28247;DHT22;34504;53.178;22.058;2022-07-23T05:09:15;22.50;90.90
28247;DHT22;34504;53.178;22.058;2022-07-23T05:11:46;22.40;91.10
28247;DHT22;34504;53.178;22.058;2022-07-23T05:14:13;22.40;91.40
28247;DHT22;34504;53.178;22.058;2022-07-23T05:16:42;22.50;91.50
28247;DHT22;34504;53.178;22.058;2022-07-23T05:19:17;22.50;91.20
28247;DHT22;34504;53.178;22.058;2022-07-23T05:21:52;22.50;91.20
28247;DHT22;34504;53.178;22.058;2022-07-23T05:24:27;22.60;91.20
28247;DHT22;34504;53.178;22.058;2022-07-23T05:26:58;22.70;91.10
28247;DHT22;34504;53.178;22.058;2022-07-23T05:29:36;22.70;91.00
28247;DHT22;34504;53.178;22.058;2022-07-23T05:32:07;22.80;91.20
28247;DHT22;34504;53.178;22.058;2022-07-23T05:34:44;22.90;91.00
28247;DHT22;34504;53.178;22.058;2022-07-23T05:37:31;22.90;91.30
28247;DHT22;34504;53.178;22.058;2022-07-23T05:40:07;23.10;90.60
28247;DHT22;34504;53.178;22.058;2022-07-23T05:42:42;23.10;90.30
28247;DHT22;34504;53.178;22.058;2022-07-23T05:45:11;23.10;90.60
28247;DHT22;34504;53.178;22.058;2022-07-23T05:47:46;23.20;90.50
28247;DHT22;34504;53.178;22.058;2022-07-23T05:50:37;23.30;90.10
28247;DHT22;34504;53.178;22.058;2022-07-23T05:53:28;23.30;90.20
28247;DHT22;34504;53.178;22.058;2022-07-23T05:56:07;23.40;89.70
28247;DHT22;34504;53.178;22.058;2022-07-23T05:58:41;23.40;90.10
28247;DHT22;34504;53.178;22.058;2022-07-23T06:01:13;23.40;89.80
28247;DHT22;34504;53.178;22.058;2022-07-23T06:04:09;23.50;89.90
28247;DHT22;34504;53.178;22.058;2022-07-23T06:06:46;23.70;89.70
28247;DHT22;34504;53.178;22.058;2022-07-23T06:09:14;23.70;89.30
28247;DHT22;34504;53.178;22.058;2022-07-23T06:11:42;23.80;89.10
28247;DHT22;34504;53.178;22.058;2022-07-23T06:14:19;23.80;88.00
28247;DHT22;34504;53.178;22.058;2022-07-23T06:16:53;23.80;88.20
28247;DHT22;34504;53.178;22.058;2022-07-23T06:19:25;23.80;88.60
28247;DHT22;34504;53.178;22.058;2022-07-23T06:21:53;23.80;88.80
28247;DHT22;34504;53.178;22.058;2022-07-23T06:24:24;23.90;88.70
28247;DHT22;34504;53.178;22.058;2022-07-23T06:26:55;23.90;87.90
28247;DHT22;34504;53.178;22.058;2022-07-23T06:29:23;23.90;87.80
28247;DHT22;34504;53.178;22.058;2022-07-23T06:31:53;23.90;87.20
28247;DHT22;34504;53.178;22.058;2022-07-23T06:34:21;24.00;86.90
28247;DHT22;34504;53.178;22.058;2022-07-23T06:36:53;24.00;86.50
28247;DHT22;34504;53.178;22.058;2022-07-23T06:39:26;24.10;85.90
28247;DHT22;34504;53.178;22.058;2022-07-23T06:42:05;24.00;86.00
28247;DHT22;34504;53.178;22.058;2022-07-23T06:44:59;24.10;86.10
28247;DHT22;34504;53.178;22.058;2022-07-23T06:47:31;24.10;86.20
28247;DHT22;34504;53.178;22.058;2022-07-23T06:50:07;24.00;86.50
28247;DHT22;34504;53.178;22.058;2022-07-23T06:52:35;24.00;86.30
28247;DHT22;34504;53.178;22.058;2022-07-23T06:55:09;24.00;86.80
28247;DHT22;34504;53.178;22.058;2022-07-23T06:57:37;24.00;86.60
28247;DHT22;34504;53.178;22.058;2022-07-23T07:00:09;24.00;86.10
28247;DHT22;34504;53.178;22.058;2022-07-23T07:07:12;24.00;86.20
28247;DHT22;34504;53.178;22.058;2022-07-23T07:10:35;24.00;85.20
28247;DHT22;34504;53.178;22.058;2022-07-23T07:13:20;24.10;84.60
28247;DHT22;34504;53.178;22.058;2022-07-23T07:15:54;24.10;84.40
28247;DHT22;34504;53.178;22.058;2022-07-23T07:18:38;24.20;84.70
28247;DHT22;34504;53.178;22.058;2022-07-23T07:21:28;24.20;84.70
28247;DHT22;34504;53.178;22.058;2022-07-23T07:24:18;24.30;85.30
28247;DHT22;34504;53.178;22.058;2022-07-23T07:29:25;24.40;82.90
28247;DHT22;34504;53.178;22.058;2022-07-23T07:32:03;24.50;84.00
28247;DHT22;34504;53.178;22.058;2022-07-23T07:34:59;24.50;82.80
28247;DHT22;34504;53.178;22.058;2022-07-23T07:37:41;24.60;83.00
28247;DHT22;34504;53.178;22.058;2022-07-23T07:40:33;24.60;81.60
28247;DHT22;34504;53.178;22.058;2022-07-23T07:43:17;24.70;82.40
28247;DHT22;34504;53.178;22.058;2022-07-23T07:45:46;24.70;81.70
28247;DHT22;34504;53.178;22.058;2022-07-23T07:49:01;24.80;81.80
28247;DHT22;34504;53.178;22.058;2022-07-23T07:51:32;24.80;82.20
28247;DHT22;34504;53.178;22.058;2022-07-23T07:54:08;24.90;82.40
28247;DHT22;34504;53.178;22.058;2022-07-23T07:57:02;25.00;82.60
28247;DHT22;34504;53.178;22.058;2022-07-23T07:59:54;25.10;82.40
28247;DHT22;34504;53.178;22.058;2022-07-23T08:02:25;25.10;82.00
28247;DHT22;34504;53.178;22.058;2022-07-23T08:04:54;25.20;80.70
28247;DHT22;34504;53.178;22.058;2022-07-23T08:07:24;25.20;81.70
28247;DHT22;34504;53.178;22.058;2022-07-23T08:10:14;25.20;81.00
28247;DHT22;34504;53.178;22.058;2022-07-23T08:13:02;25.30;79.70
28247;DHT22;34504;53.178;22.058;2022-07-23T08:15:56;25.40;78.50
28247;DHT22;34504;53.178;22.058;2022-07-23T08:18:57;25.40;78.40
28247;DHT22;34504;53.178;22.058;2022-07-23T08:21:28;25.50;79.70
28247;DHT22;34504;53.178;22.058;2022-07-23T08:23:56;25.60;79.20
28247;DHT22;34504;53.178;22.058;2022-07-23T08:26:24;25.70;78.80
28247;DHT22;34504;53.178;22.058;2022-07-23T08:28:52;25.80;78.30
28247;DHT22;34504;53.178;22.058;2022-07-23T08:31:22;25.90;77.40
28247;DHT22;34504;53.178;22.058;2022-07-23T08:33:55;25.90;77.20
28247;DHT22;34504;53.178;22.058;2022-07-23T08:36:39;25.90;77.40
28247;DHT22;34504;53.178;22.058;2022-07-23T08:39:52;26.20;77.20
28247;DHT22;34504;53.178;22.058;2022-07-23T08:42:36;26.40;75.70
28247;DHT22;34504;53.178;22.058;2022-07-23T08:46:11;26.70;76.20
28247;DHT22;34504;53.178;22.058;2022-07-23T08:49:39;26.80;72.90
28247;DHT22;34504;53.178;22.058;2022-07-23T08:53:00;26.90;73.00
28247;DHT22;34504;53.178;22.058;2022-07-23T08:56:04;26.90;73.20
28247;DHT22;34504;53.178;22.058;2022-07-23T08:59:19;27.10;74.20
28247;DHT22;34504;53.178;22.058;2022-07-23T09:02:29;27.20;73.60
28247;DHT22;34504;53.178;22.058;2022-07-23T09:06:07;27.40;73.40
28247;DHT22;34504;53.178;22.058;2022-07-23T09:08:58;27.40;73.80
28247;DHT22;34504;53.178;22.058;2022-07-23T09:12:10;27.50;72.50
28247;DHT22;34504;53.178;22.058;2022-07-23T09:15:09;27.60;71.80
28247;DHT22;34504;53.178;22.058;2022-07-23T09:17:46;27.70;72.40
28247;DHT22;34504;53.178;22.058;2022-07-23T09:20:22;27.90;71.80
28247;DHT22;34504;53.178;22.058;2022-07-23T09:23:17;27.80;69.60
28247;DHT22;34504;53.178;22.058;2022-07-23T09:26:50;27.90;71.10
28247;DHT22;34504;53.178;22.058;2022-07-23T09:29:56;28.00;71.70
28247;DHT22;34504;53.178;22.058;2022-07-23T09:32:49;28.00;71.30
28247;DHT22;34504;53.178;22.058;2022-07-23T09:36:10;28.10;70.80
28247;DHT22;34504;53.178;22.058;2022-07-23T09:38:49;28.00;69.70
28247;DHT22;34504;53.178;22.058;2022-07-23T09:41:33;28.00;70.10
28247;DHT22;34504;53.178;22.058;2022-07-23T09:45:17;28.00;68.90
28247;DHT22;34504;53.178;22.058;2022-07-23T09:48:15;28.00;70.20
28247;DHT22;34504;53.178;22.058;2022-07-23T09:51:02;28.00;69.50
28247;DHT22;34504;53.178;22.058;2022-07-23T09:53:49;28.00;69.90
28247;DHT22;34504;53.178;22.058;2022-07-23T09:57:10;27.90;69.00
28247;DHT22;34504;53.178;22.058;2022-07-23T10:00:32;28.00;70.30
28247;DHT22;34504;53.178;22.058;2022-07-23T10:03:41;28.00;68.60
28247;DHT22;34504;53.178;22.058;2022-07-23T10:07:27;27.90;69.30
28247;DHT22;34504;53.178;22.058;2022-07-23T10:11:00;27.90;67.80
28247;DHT22;34504;53.178;22.058;2022-07-23T10:14:15;27.90;67.70
28247;DHT22;34504;53.178;22.058;2022-07-23T10:17:23;27.90;67.70
28247;DHT22;34504;53.178;22.058;2022-07-23T10:20:19;27.90;68.20
28247;DHT22;34504;53.178;22.058;2022-07-23T10:23:00;27.90;67.90
28247;DHT22;34504;53.178;22.058;2022-07-23T10:26:05;27.80;67.80
28247;DHT22;34504;53.178;22.058;2022-07-23T10:38:37;28.20;67.30
28247;DHT22;34504;53.178;22.058;2022-07-23T10:41:46;28.20;66.70
28247;DHT22;34504;53.178;22.058;2022-07-23T10:44:52;28.40;65.90
28247;DHT22;34504;53.178;22.058;2022-07-23T10:47:42;28.50;64.40
28247;DHT22;34504;53.178;22.058;2022-07-23T10:57:52;28.70;62.40
28247;DHT22;34504;53.178;22.058;2022-07-23T11:00:44;28.70;60.70
28247;DHT22;34504;53.178;22.058;2022-07-23T11:04:14;28.70;59.60
28247;DHT22;34504;53.178;22.058;2022-07-23T11:11:31;28.80;60.40
28247;DHT22;34504;53.178;22.058;2022-07-23T11:20:50;29.20;56.10
28247;DHT22;34504;53.178;22.058;2022-07-23T11:37:35;29.60;55.20
28247;DHT22;34504;53.178;22.058;2022-07-23T11:43:14;29.70;53.90
28247;DHT22;34504;53.178;22.058;2022-07-23T11:46:30;29.80;50.70
28247;DHT22;34504;53.178;22.058;2022-07-23T11:49:26;29.80;48.80
28247;DHT22;34504;53.178;22.058;2022-07-23T11:52:27;29.70;50.10
28247;DHT22;34504;53.178;22.058;2022-07-23T11:58:34;29.80;50.30
28247;DHT22;34504;53.178;22.058;2022-07-23T12:05:30;29.90;47.10
28247;DHT22;34504;53.178;22.058;2022-07-23T12:08:06;29.90;48.30
28247;DHT22;34504;53.178;22.058;2022-07-23T12:11:22;30.00;48.10
28247;DHT22;34504;53.178;22.058;2022-07-23T12:14:29;30.20;47.60
28247;DHT22;34504;53.178;22.058;2022-07-23T12:17:49;30.30;45.70
28247;DHT22;34504;53.178;22.058;2022-07-23T12:20:44;30.40;46.40
28247;DHT22;34504;53.178;22.058;2022-07-23T12:27:10;30.50;45.60
28247;DHT22;34504;53.178;22.058;2022-07-23T12:30:15;30.50;45.20
28247;DHT22;34504;53.178;22.058;2022-07-23T12:37:00;30.50;44.90
28247;DHT22;34504;53.178;22.058;2022-07-23T12:39:42;30.50;44.60
28247;DHT22;34504;53.178;22.058;2022-07-23T12:42:40;30.50;44.50
28247;DHT22;34504;53.178;22.058;2022-07-23T12:48:17;30.50;42.80
28247;DHT22;34504;53.178;22.058;2022-07-23T12:51:25;30.60;42.90
28247;DHT22;34504;53.178;22.058;2022-07-23T12:54:42;30.60;42.70
28247;DHT22;34504;53.178;22.058;2022-07-23T12:58:04;30.60;43.00
28247;DHT22;34504;53.178;22.058;2022-07-23T13:01:28;30.60;44.20
28247;DHT22;34504;53.178;22.058;2022-07-23T13:07:25;30.60;42.70
28247;DHT22;34504;53.178;22.058;2022-07-23T13:10:13;30.60;43.00
28247;DHT22;34504;53.178;22.058;2022-07-23T13:13:15;30.60;41.60
28247;DHT22;34504;53.178;22.058;2022-07-23T13:16:13;30.60;41.40
28247;DHT22;34504;53.178;22.058;2022-07-23T13:18:58;30.70;41.90
28247;DHT22;34504;53.178;22.058;2022-07-23T13:21:57;30.70;42.60
28247;DHT22;34504;53.178;22.058;2022-07-23T13:24:45;30.70;42.90
28247;DHT22;34504;53.178;22.058;2022-07-23T13:27:44;30.70;42.40
28247;DHT22;34504;53.178;22.058;2022-07-23T13:34:33;30.50;43.50
28247;DHT22;34504;53.178;22.058;2022-07-23T13:39:17;30.50;44.50
